KRCX

Rusk County Airport

Ladysmith, Wisconsin, USA
METAR KRCX 220355Z AUTO 15009G16KT 10SM SCT075 OVC080 M09/M15 A3020 RMK AO2 T10871148
Observed Flight Rules
Jan-22 @ 03:55 UTC (33 minutes ago) Visual Flight Rules
Wind Visibility Clouds
150° at 9 knots
 Gusting to 16 knots
10 miles
  • Scattered at 7,500' AGL
  • Overcast at 8,000' AGL
Temperatures Readings
Current -9°C / 16°F
Dewpoint -15°C / 5°F
Humidity 62%
Altimeter 30.2" Hg
Pressure 1022.72 hPa
Elevation 377
METAR KRCX 220355Z AUTO 15009G16KT 10SM SCT075 OVC080 M09/M15 A3020 RMK AO2 T10871148
Observed Flight Rules
Jan-22 @ 03:55 UTC
(33 minutes ago)
VFR
Wind Visibility
150° at 9 knots
 Gusting to 16 knots
10 miles
Clouds
  • Scattered at 7,500' AGL
  • Overcast at 8,000' AGL
Temperature Dewpoint
-9°C / 16°F -15°C / 5°F
Humidity Altimeter Pressure
62% 30.2" Hg 1022.72 hPa